sensor_id;sensor_type;location;lat;lon;timestamp;P1;durP1;ratioP1;P2;durP2;ratioP2
3427;SDS011;1727;42.624;23.406;2022-11-23T00:01:46;8.20;;;5.80;;
3427;SDS011;1727;42.624;23.406;2022-11-23T00:04:13;9.90;;;7.17;;
3427;SDS011;1727;42.624;23.406;2022-11-23T00:06:42;6.73;;;6.00;;
3427;SDS011;1727;42.624;23.406;2022-11-23T00:09:09;5.80;;;5.20;;
3427;SDS011;1727;42.624;23.406;2022-11-23T00:11:36;8.17;;;6.23;;
3427;SDS011;1727;42.624;23.406;2022-11-23T00:14:03;12.03;;;5.83;;
3427;SDS011;1727;42.624;23.406;2022-11-23T00:16:30;5.80;;;4.97;;
3427;SDS011;1727;42.624;23.406;2022-11-23T00:18:57;5.10;;;4.43;;
3427;SDS011;1727;42.624;23.406;2022-11-23T00:21:25;9.00;;;4.73;;
3427;SDS011;1727;42.624;23.406;2022-11-23T00:23:55;7.63;;;4.47;;
3427;SDS011;1727;42.624;23.406;2022-11-23T00:26:22;6.97;;;4.10;;
3427;SDS011;1727;42.624;23.406;2022-11-23T00:28:49;5.17;;;4.67;;
3427;SDS011;1727;42.624;23.406;2022-11-23T00:31:16;4.10;;;3.80;;
3427;SDS011;1727;42.624;23.406;2022-11-23T00:33:47;4.87;;;3.73;;
3427;SDS011;1727;42.624;23.406;2022-11-23T00:36:14;7.57;;;4.37;;
3427;SDS011;1727;42.624;23.406;2022-11-23T00:38:42;10.27;;;4.40;;
3427;SDS011;1727;42.624;23.406;2022-11-23T00:41:12;5.80;;;4.47;;
3427;SDS011;1727;42.624;23.406;2022-11-23T00:43:40;5.20;;;4.70;;
3427;SDS011;1727;42.624;23.406;2022-11-23T00:46:09;6.40;;;4.90;;
3427;SDS011;1727;42.624;23.406;2022-11-23T00:48:40;5.00;;;4.17;;
3427;SDS011;1727;42.624;23.406;2022-11-23T00:51:08;5.10;;;4.70;;
3427;SDS011;1727;42.624;23.406;2022-11-23T00:53:36;6.37;;;4.60;;
3427;SDS011;1727;42.624;23.406;2022-11-23T00:56:04;8.17;;;5.33;;
3427;SDS011;1727;42.624;23.406;2022-11-23T00:58:32;4.47;;;4.07;;
3427;SDS011;1727;42.624;23.406;2022-11-23T01:01:03;5.30;;;4.80;;
3427;SDS011;1727;42.624;23.406;2022-11-23T01:03:31;8.13;;;4.50;;
3427;SDS011;1727;42.624;23.406;2022-11-23T01:06:02;6.27;;;4.00;;
3427;SDS011;1727;42.624;23.406;2022-11-23T01:08:30;6.17;;;4.27;;
3427;SDS011;1727;42.624;23.406;2022-11-23T01:10:58;5.00;;;3.83;;
3427;SDS011;1727;42.624;23.406;2022-11-23T01:13:27;5.67;;;4.83;;
3427;SDS011;1727;42.624;23.406;2022-11-23T01:15:55;5.00;;;4.30;;
3427;SDS011;1727;42.624;23.406;2022-11-23T01:18:22;4.37;;;3.90;;
3427;SDS011;1727;42.624;23.406;2022-11-23T01:20:50;6.80;;;4.10;;
3427;SDS011;1727;42.624;23.406;2022-11-23T01:23:17;4.90;;;4.50;;
3427;SDS011;1727;42.624;23.406;2022-11-23T01:25:44;4.97;;;4.50;;
3427;SDS011;1727;42.624;23.406;2022-11-23T01:28:11;4.67;;;4.23;;
3427;SDS011;1727;42.624;23.406;2022-11-23T01:30:37;5.43;;;4.10;;
3427;SDS011;1727;42.624;23.406;2022-11-23T01:33:06;4.97;;;4.40;;
3427;SDS011;1727;42.624;23.406;2022-11-23T01:35:32;5.17;;;4.10;;
3427;SDS011;1727;42.624;23.406;2022-11-23T01:37:59;6.33;;;5.00;;
3427;SDS011;1727;42.624;23.406;2022-11-23T01:40:26;7.03;;;6.30;;
3427;SDS011;1727;42.624;23.406;2022-11-23T01:42:53;12.67;;;9.13;;
3427;SDS011;1727;42.624;23.406;2022-11-23T01:45:26;17.67;;;11.77;;
3427;SDS011;1727;42.624;23.406;2022-11-23T01:47:59;11.47;;;9.13;;
3427;SDS011;1727;42.624;23.406;2022-11-23T01:50:27;7.93;;;6.23;;
3427;SDS011;1727;42.624;23.406;2022-11-23T01:52:54;6.27;;;4.37;;
3427;SDS011;1727;42.624;23.406;2022-11-23T01:55:22;6.30;;;4.57;;
3427;SDS011;1727;42.624;23.406;2022-11-23T01:57:50;5.37;;;4.87;;
3427;SDS011;1727;42.624;23.406;2022-11-23T02:00:17;4.50;;;4.10;;
3427;SDS011;1727;42.624;23.406;2022-11-23T02:02:45;3.63;;;3.33;;
3427;SDS011;1727;42.624;23.406;2022-11-23T02:05:16;4.83;;;4.40;;
3427;SDS011;1727;42.624;23.406;2022-11-23T02:07:48;8.70;;;5.40;;
3427;SDS011;1727;42.624;23.406;2022-11-23T02:10:15;8.53;;;5.60;;
3427;SDS011;1727;42.624;23.406;2022-11-23T02:12:43;7.10;;;5.60;;
3427;SDS011;1727;42.624;23.406;2022-11-23T02:15:10;9.97;;;5.93;;
3427;SDS011;1727;42.624;23.406;2022-11-23T02:17:37;5.93;;;5.33;;
3427;SDS011;1727;42.624;23.406;2022-11-23T02:20:06;8.43;;;6.77;;
3427;SDS011;1727;42.624;23.406;2022-11-23T02:22:36;10.70;;;7.77;;
3427;SDS011;1727;42.624;23.406;2022-11-23T02:25:13;13.97;;;9.67;;
3427;SDS011;1727;42.624;23.406;2022-11-23T02:27:49;10.90;;;7.00;;
3427;SDS011;1727;42.624;23.406;2022-11-23T02:30:16;8.83;;;6.37;;
3427;SDS011;1727;42.624;23.406;2022-11-23T02:32:44;9.93;;;7.50;;
3427;SDS011;1727;42.624;23.406;2022-11-23T02:35:11;7.43;;;6.70;;
3427;SDS011;1727;42.624;23.406;2022-11-23T02:37:37;12.53;;;10.00;;
3427;SDS011;1727;42.624;23.406;2022-11-23T02:40:08;13.30;;;9.97;;
3427;SDS011;1727;42.624;23.406;2022-11-23T02:42:42;12.03;;;9.40;;
3427;SDS011;1727;42.624;23.406;2022-11-23T02:45:14;13.03;;;9.60;;
3427;SDS011;1727;42.624;23.406;2022-11-23T02:47:49;23.20;;;11.87;;
3427;SDS011;1727;42.624;23.406;2022-11-23T02:50:16;14.90;;;10.37;;
3427;SDS011;1727;42.624;23.406;2022-11-23T02:52:43;9.57;;;7.27;;
3427;SDS011;1727;42.624;23.406;2022-11-23T02:55:09;9.37;;;8.00;;
3427;SDS011;1727;42.624;23.406;2022-11-23T02:57:36;12.60;;;11.03;;
3427;SDS011;1727;42.624;23.406;2022-11-23T03:00:03;12.23;;;9.33;;
3427;SDS011;1727;42.624;23.406;2022-11-23T03:02:32;13.90;;;11.17;;
3427;SDS011;1727;42.624;23.406;2022-11-23T03:04:59;19.77;;;12.23;;
3427;SDS011;1727;42.624;23.406;2022-11-23T03:07:26;21.13;;;13.00;;
3427;SDS011;1727;42.624;23.406;2022-11-23T03:09:53;17.83;;;12.93;;
3427;SDS011;1727;42.624;23.406;2022-11-23T03:12:19;13.87;;;12.47;;
3427;SDS011;1727;42.624;23.406;2022-11-23T03:14:46;20.00;;;13.80;;
3427;SDS011;1727;42.624;23.406;2022-11-23T03:17:13;19.23;;;12.73;;
3427;SDS011;1727;42.624;23.406;2022-11-23T03:19:41;25.13;;;16.70;;
3427;SDS011;1727;42.624;23.406;2022-11-23T03:22:08;33.97;;;17.80;;
3427;SDS011;1727;42.624;23.406;2022-11-23T03:24:35;22.07;;;15.80;;
3427;SDS011;1727;42.624;23.406;2022-11-23T03:27:02;20.87;;;16.00;;
3427;SDS011;1727;42.624;23.406;2022-11-23T03:29:29;20.03;;;14.70;;
3427;SDS011;1727;42.624;23.406;2022-11-23T03:31:55;19.30;;;15.00;;
3427;SDS011;1727;42.624;23.406;2022-11-23T03:34:22;25.30;;;15.80;;
3427;SDS011;1727;42.624;23.406;2022-11-23T03:36:50;24.40;;;16.60;;
3427;SDS011;1727;42.624;23.406;2022-11-23T03:39:17;22.77;;;15.73;;
3427;SDS011;1727;42.624;23.406;2022-11-23T03:41:44;25.00;;;15.40;;
3427;SDS011;1727;42.624;23.406;2022-11-23T03:44:11;20.93;;;15.63;;
3427;SDS011;1727;42.624;23.406;2022-11-23T03:46:37;17.93;;;14.60;;
3427;SDS011;1727;42.624;23.406;2022-11-23T03:49:04;15.77;;;13.60;;
3427;SDS011;1727;42.624;23.406;2022-11-23T03:51:31;14.33;;;12.53;;
3427;SDS011;1727;42.624;23.406;2022-11-23T03:53:59;14.97;;;12.50;;
3427;SDS011;1727;42.624;23.406;2022-11-23T03:56:26;17.17;;;13.00;;
3427;SDS011;1727;42.624;23.406;2022-11-23T03:58:53;16.27;;;12.07;;
3427;SDS011;1727;42.624;23.406;2022-11-23T04:01:20;13.13;;;11.77;;
3427;SDS011;1727;42.624;23.406;2022-11-23T04:03:46;19.73;;;14.40;;
3427;SDS011;1727;42.624;23.406;2022-11-23T04:06:13;15.97;;;12.97;;
3427;SDS011;1727;42.624;23.406;2022-11-23T04:08:40;18.63;;;14.50;;
3427;SDS011;1727;42.624;23.406;2022-11-23T04:11:08;14.70;;;13.20;;
3427;SDS011;1727;42.624;23.406;2022-11-23T04:13:35;18.97;;;14.67;;
3427;SDS011;1727;42.624;23.406;2022-11-23T04:16:02;21.63;;;16.87;;
3427;SDS011;1727;42.624;23.406;2022-11-23T04:18:31;22.97;;;15.70;;
3427;SDS011;1727;42.624;23.406;2022-11-23T04:20:58;16.10;;;14.30;;
3427;SDS011;1727;42.624;23.406;2022-11-23T04:23:25;18.20;;;16.10;;
3427;SDS011;1727;42.624;23.406;2022-11-23T04:25:52;24.13;;;17.93;;
3427;SDS011;1727;42.624;23.406;2022-11-23T04:28:20;21.70;;;14.30;;
3427;SDS011;1727;42.624;23.406;2022-11-23T04:30:47;14.70;;;12.77;;
3427;SDS011;1727;42.624;23.406;2022-11-23T04:33:13;16.80;;;14.17;;
3427;SDS011;1727;42.624;23.406;2022-11-23T04:35:40;14.53;;;12.37;;
3427;SDS011;1727;42.624;23.406;2022-11-23T04:38:07;15.03;;;13.43;;
3427;SDS011;1727;42.624;23.406;2022-11-23T04:40:34;16.37;;;14.23;;
3427;SDS011;1727;42.624;23.406;2022-11-23T04:43:01;15.33;;;13.77;;
3427;SDS011;1727;42.624;23.406;2022-11-23T04:45:30;24.17;;;16.13;;
3427;SDS011;1727;42.624;23.406;2022-11-23T04:47:56;23.40;;;14.83;;
3427;SDS011;1727;42.624;23.406;2022-11-23T04:50:23;18.10;;;15.20;;
3427;SDS011;1727;42.624;23.406;2022-11-23T04:52:50;25.10;;;17.13;;
3427;SDS011;1727;42.624;23.406;2022-11-23T04:55:17;19.80;;;17.23;;
3427;SDS011;1727;42.624;23.406;2022-11-23T04:57:43;24.43;;;17.23;;
3427;SDS011;1727;42.624;23.406;2022-11-23T05:00:11;19.50;;;15.70;;
3427;SDS011;1727;42.624;23.406;2022-11-23T05:02:40;19.80;;;15.90;;
3427;SDS011;1727;42.624;23.406;2022-11-23T05:05:07;22.57;;;15.07;;
3427;SDS011;1727;42.624;23.406;2022-11-23T05:07:35;23.57;;;16.83;;
3427;SDS011;1727;42.624;23.406;2022-11-23T05:10:02;21.67;;;16.53;;
3427;SDS011;1727;42.624;23.406;2022-11-23T05:12:29;23.70;;;16.97;;
3427;SDS011;1727;42.624;23.406;2022-11-23T05:14:55;19.30;;;17.30;;
3427;SDS011;1727;42.624;23.406;2022-11-23T05:17:22;24.73;;;19.10;;
3427;SDS011;1727;42.624;23.406;2022-11-23T05:19:50;21.43;;;17.07;;
3427;SDS011;1727;42.624;23.406;2022-11-23T05:22:17;26.90;;;19.33;;
3427;SDS011;1727;42.624;23.406;2022-11-23T05:24:44;28.67;;;18.40;;
3427;SDS011;1727;42.624;23.406;2022-11-23T05:27:11;27.37;;;18.83;;
3427;SDS011;1727;42.624;23.406;2022-11-23T05:29:38;24.43;;;18.40;;
3427;SDS011;1727;42.624;23.406;2022-11-23T05:32:05;27.53;;;18.60;;
3427;SDS011;1727;42.624;23.406;2022-11-23T05:34:32;22.10;;;16.50;;
3427;SDS011;1727;42.624;23.406;2022-11-23T05:37:00;24.75;;;19.40;;
3427;SDS011;1727;42.624;23.406;2022-11-23T05:39:29;23.27;;;18.37;;
3427;SDS011;1727;42.624;23.406;2022-11-23T05:41:56;20.00;;;16.03;;
3427;SDS011;1727;42.624;23.406;2022-11-23T05:44:23;18.50;;;15.70;;
3427;SDS011;1727;42.624;23.406;2022-11-23T05:46:50;16.97;;;14.67;;
3427;SDS011;1727;42.624;23.406;2022-11-23T05:49:19;21.33;;;16.57;;
3427;SDS011;1727;42.624;23.406;2022-11-23T05:51:46;21.40;;;17.03;;
3427;SDS011;1727;42.624;23.406;2022-11-23T05:54:14;24.47;;;18.40;;
3427;SDS011;1727;42.624;23.406;2022-11-23T05:56:41;22.00;;;16.43;;
3427;SDS011;1727;42.624;23.406;2022-11-23T05:59:09;21.60;;;17.37;;
3427;SDS011;1727;42.624;23.406;2022-11-23T06:01:36;20.20;;;18.00;;
3427;SDS011;1727;42.624;23.406;2022-11-23T06:04:03;22.17;;;17.43;;
3427;SDS011;1727;42.624;23.406;2022-11-23T06:06:32;19.23;;;16.50;;
3427;SDS011;1727;42.624;23.406;2022-11-23T06:08:59;22.97;;;17.90;;
3427;SDS011;1727;42.624;23.406;2022-11-23T06:11:27;32.57;;;21.27;;
3427;SDS011;1727;42.624;23.406;2022-11-23T06:13:55;22.40;;;18.40;;
3427;SDS011;1727;42.624;23.406;2022-11-23T06:16:22;37.13;;;25.00;;
3427;SDS011;1727;42.624;23.406;2022-11-23T06:18:48;37.57;;;27.20;;
3427;SDS011;1727;42.624;23.406;2022-11-23T06:21:15;32.90;;;24.10;;
3427;SDS011;1727;42.624;23.406;2022-11-23T06:23:42;34.63;;;25.50;;
3427;SDS011;1727;42.624;23.406;2022-11-23T06:26:09;34.10;;;23.10;;
3427;SDS011;1727;42.624;23.406;2022-11-23T06:28:37;33.97;;;26.30;;
3427;SDS011;1727;42.624;23.406;2022-11-23T06:31:05;31.40;;;24.63;;
3427;SDS011;1727;42.624;23.406;2022-11-23T06:33:32;33.07;;;21.10;;
3427;SDS011;1727;42.624;23.406;2022-11-23T06:36:01;25.33;;;21.53;;
3427;SDS011;1727;42.624;23.406;2022-11-23T06:38:28;29.67;;;22.40;;
3427;SDS011;1727;42.624;23.406;2022-11-23T06:40:56;28.53;;;21.90;;
3427;SDS011;1727;42.624;23.406;2022-11-23T06:43:24;45.97;;;27.80;;
3427;SDS011;1727;42.624;23.406;2022-11-23T06:45:52;38.10;;;25.57;;
3427;SDS011;1727;42.624;23.406;2022-11-23T06:48:19;34.30;;;25.90;;
3427;SDS011;1727;42.624;23.406;2022-11-23T06:50:46;32.50;;;25.23;;
3427;SDS011;1727;42.624;23.406;2022-11-23T06:53:13;29.33;;;21.70;;
3427;SDS011;1727;42.624;23.406;2022-11-23T06:55:40;23.87;;;19.97;;
3427;SDS011;1727;42.624;23.406;2022-11-23T06:58:07;29.03;;;19.80;;
3427;SDS011;1727;42.624;23.406;2022-11-23T07:00:33;26.67;;;21.00;;
3427;SDS011;1727;42.624;23.406;2022-11-23T07:03:02;25.30;;;19.33;;
3427;SDS011;1727;42.624;23.406;2022-11-23T07:05:29;22.00;;;19.03;;
3427;SDS011;1727;42.624;23.406;2022-11-23T07:07:55;30.03;;;22.63;;
3427;SDS011;1727;42.624;23.406;2022-11-23T07:10:22;34.57;;;22.60;;
3427;SDS011;1727;42.624;23.406;2022-11-23T07:12:49;29.57;;;22.80;;
3427;SDS011;1727;42.624;23.406;2022-11-23T07:15:16;26.20;;;20.33;;
3427;SDS011;1727;42.624;23.406;2022-11-23T07:17:43;24.90;;;21.10;;
3427;SDS011;1727;42.624;23.406;2022-11-23T07:20:12;26.27;;;21.20;;
3427;SDS011;1727;42.624;23.406;2022-11-23T07:22:39;26.17;;;21.33;;
3427;SDS011;1727;42.624;23.406;2022-11-23T07:25:06;22.40;;;19.90;;
3427;SDS011;1727;42.624;23.406;2022-11-23T07:27:33;23.00;;;19.10;;
3427;SDS011;1727;42.624;23.406;2022-11-23T07:30:00;25.17;;;22.43;;
3427;SDS011;1727;42.624;23.406;2022-11-23T07:32:27;30.83;;;25.00;;
3427;SDS011;1727;42.624;23.406;2022-11-23T07:34:54;32.07;;;25.53;;
3427;SDS011;1727;42.624;23.406;2022-11-23T07:37:22;26.93;;;21.23;;
3427;SDS011;1727;42.624;23.406;2022-11-23T07:39:49;26.37;;;21.97;;
3427;SDS011;1727;42.624;23.406;2022-11-23T07:42:17;28.90;;;24.53;;
3427;SDS011;1727;42.624;23.406;2022-11-23T07:44:44;55.03;;;36.30;;
3427;SDS011;1727;42.624;23.406;2022-11-23T07:47:11;47.10;;;31.63;;
3427;SDS011;1727;42.624;23.406;2022-11-23T07:49:37;33.63;;;25.70;;
3427;SDS011;1727;42.624;23.406;2022-11-23T07:52:04;36.43;;;26.93;;
3427;SDS011;1727;42.624;23.406;2022-11-23T07:54:32;30.57;;;22.00;;
3427;SDS011;1727;42.624;23.406;2022-11-23T07:56:59;24.00;;;20.40;;
3427;SDS011;1727;42.624;23.406;2022-11-23T07:59:26;22.17;;;19.60;;
3427;SDS011;1727;42.624;23.406;2022-11-23T08:01:53;20.50;;;18.33;;
3427;SDS011;1727;42.624;23.406;2022-11-23T08:04:20;20.20;;;17.10;;
3427;SDS011;1727;42.624;23.406;2022-11-23T08:06:47;21.47;;;17.47;;
3427;SDS011;1727;42.624;23.406;2022-11-23T08:09:14;20.60;;;18.10;;
3427;SDS011;1727;42.624;23.406;2022-11-23T08:11:42;23.87;;;18.77;;
3427;SDS011;1727;42.624;23.406;2022-11-23T08:14:09;20.33;;;17.20;;
3427;SDS011;1727;42.624;23.406;2022-11-23T08:16:36;20.77;;;18.67;;
3427;SDS011;1727;42.624;23.406;2022-11-23T08:19:02;21.30;;;17.13;;
3427;SDS011;1727;42.624;23.406;2022-11-23T08:21:29;21.30;;;17.97;;
3427;SDS011;1727;42.624;23.406;2022-11-23T08:23:56;19.87;;;17.77;;
3427;SDS011;1727;42.624;23.406;2022-11-23T08:26:23;20.40;;;17.80;;
3427;SDS011;1727;42.624;23.406;2022-11-23T08:28:51;22.50;;;18.73;;
3427;SDS011;1727;42.624;23.406;2022-11-23T08:31:18;28.20;;;20.10;;
3427;SDS011;1727;42.624;23.406;2022-11-23T08:33:45;25.23;;;21.40;;
3427;SDS011;1727;42.624;23.406;2022-11-23T08:36:11;35.93;;;23.10;;
3427;SDS011;1727;42.624;23.406;2022-11-23T08:38:38;25.50;;;22.77;;
3427;SDS011;1727;42.624;23.406;2022-11-23T08:44:28;24.50;;;21.83;;
3427;SDS011;1727;42.624;23.406;2022-11-23T08:46:55;26.70;;;23.80;;
3427;SDS011;1727;42.624;23.406;2022-11-23T08:49:22;33.27;;;24.53;;
3427;SDS011;1727;42.624;23.406;2022-11-23T08:51:48;28.17;;;25.00;;
3427;SDS011;1727;42.624;23.406;2022-11-23T08:54:15;32.77;;;25.90;;
3427;SDS011;1727;42.624;23.406;2022-11-23T08:56:42;27.30;;;23.53;;
3427;SDS011;1727;42.624;23.406;2022-11-23T08:59:09;26.67;;;23.87;;
3427;SDS011;1727;42.624;23.406;2022-11-23T09:01:37;30.83;;;25.10;;
3427;SDS011;1727;42.624;23.406;2022-11-23T09:04:04;31.17;;;24.50;;
3427;SDS011;1727;42.624;23.406;2022-11-23T09:06:31;29.90;;;25.50;;
3427;SDS011;1727;42.624;23.406;2022-11-23T09:08:58;30.47;;;24.63;;
3427;SDS011;1727;42.624;23.406;2022-11-23T09:11:25;30.03;;;24.97;;
3427;SDS011;1727;42.624;23.406;2022-11-23T09:13:52;30.37;;;25.00;;
3427;SDS011;1727;42.624;23.406;2022-11-23T09:16:19;34.50;;;25.10;;
3427;SDS011;1727;42.624;23.406;2022-11-23T09:18:47;33.37;;;25.47;;
3427;SDS011;1727;42.624;23.406;2022-11-23T09:21:14;26.17;;;22.70;;
3427;SDS011;1727;42.624;23.406;2022-11-23T09:23:41;31.83;;;23.37;;
3427;SDS011;1727;42.624;23.406;2022-11-23T09:26:08;28.60;;;22.90;;
3427;SDS011;1727;42.624;23.406;2022-11-23T09:28:35;23.77;;;19.67;;
3427;SDS011;1727;42.624;23.406;2022-11-23T09:31:02;27.23;;;19.73;;
3427;SDS011;1727;42.624;23.406;2022-11-23T09:33:30;31.30;;;19.80;;
3427;SDS011;1727;42.624;23.406;2022-11-23T09:35:58;26.23;;;23.10;;
3427;SDS011;1727;42.624;23.406;2022-11-23T09:38:26;25.13;;;19.43;;
3427;SDS011;1727;42.624;23.406;2022-11-23T09:40:56;26.60;;;22.30;;
3427;SDS011;1727;42.624;23.406;2022-11-23T09:43:36;20.77;;;18.50;;
3427;SDS011;1727;42.624;23.406;2022-11-23T09:46:12;31.33;;;20.37;;
3427;SDS011;1727;42.624;23.406;2022-11-23T09:51:36;30.10;;;21.97;;
3427;SDS011;1727;42.624;23.406;2022-11-23T09:54:09;30.53;;;21.33;;
3427;SDS011;1727;42.624;23.406;2022-11-23T09:56:44;27.10;;;22.13;;
3427;SDS011;1727;42.624;23.406;2022-11-23T09:59:16;27.13;;;22.57;;
3427;SDS011;1727;42.624;23.406;2022-11-23T10:01:51;22.90;;;20.40;;
3427;SDS011;1727;42.624;23.406;2022-11-23T10:04:18;38.20;;;24.50;;
3427;SDS011;1727;42.624;23.406;2022-11-23T10:06:50;35.30;;;25.57;;
3427;SDS011;1727;42.624;23.406;2022-11-23T10:09:24;34.17;;;23.40;;
3427;SDS011;1727;42.624;23.406;2022-11-23T10:12:06;29.80;;;24.00;;
3427;SDS011;1727;42.624;23.406;2022-11-23T10:14:54;33.67;;;25.10;;
3427;SDS011;1727;42.624;23.406;2022-11-23T10:17:34;31.67;;;23.43;;
3427;SDS011;1727;42.624;23.406;2022-11-23T10:20:18;32.60;;;23.63;;
3427;SDS011;1727;42.624;23.406;2022-11-23T10:22:57;29.80;;;23.97;;
3427;SDS011;1727;42.624;23.406;2022-11-23T10:25:26;32.60;;;25.03;;
3427;SDS011;1727;42.624;23.406;2022-11-23T10:28:00;35.00;;;24.03;;
3427;SDS011;1727;42.624;23.406;2022-11-23T10:30:35;26.13;;;21.20;;
3427;SDS011;1727;42.624;23.406;2022-11-23T10:33:04;27.00;;;21.20;;
3427;SDS011;1727;42.624;23.406;2022-11-23T10:35:43;37.03;;;23.03;;
3427;SDS011;1727;42.624;23.406;2022-11-23T10:38:11;29.07;;;22.47;;
3427;SDS011;1727;42.624;23.406;2022-11-23T10:40:40;33.00;;;22.10;;
3427;SDS011;1727;42.624;23.406;2022-11-23T10:43:13;26.37;;;21.37;;
3427;SDS011;1727;42.624;23.406;2022-11-23T10:45:42;29.87;;;20.10;;
3427;SDS011;1727;42.624;23.406;2022-11-23T10:48:09;31.53;;;22.07;;
3427;SDS011;1727;42.624;23.406;2022-11-23T10:50:36;28.37;;;23.33;;
3427;SDS011;1727;42.624;23.406;2022-11-23T10:53:17;29.70;;;20.73;;
3427;SDS011;1727;42.624;23.406;2022-11-23T10:55:48;24.30;;;19.63;;
3427;SDS011;1727;42.624;23.406;2022-11-23T10:58:25;23.77;;;18.70;;
3427;SDS011;1727;42.624;23.406;2022-11-23T11:01:00;11.03;;;8.17;;
3427;SDS011;1727;42.624;23.406;2022-11-23T11:03:29;11.20;;;5.83;;
3427;SDS011;1727;42.624;23.406;2022-11-23T11:05:57;4.30;;;4.00;;
3427;SDS011;1727;42.624;23.406;2022-11-23T11:08:28;6.57;;;4.97;;
3427;SDS011;1727;42.624;23.406;2022-11-23T11:10:57;6.43;;;5.80;;
3427;SDS011;1727;42.624;23.406;2022-11-23T11:13:26;11.17;;;8.03;;
3427;SDS011;1727;42.624;23.406;2022-11-23T11:15:55;11.23;;;9.47;;
3427;SDS011;1727;42.624;23.406;2022-11-23T11:18:25;14.80;;;8.80;;
3427;SDS011;1727;42.624;23.406;2022-11-23T11:20:55;13.40;;;9.70;;
3427;SDS011;1727;42.624;23.406;2022-11-23T11:23:22;11.47;;;8.13;;
3427;SDS011;1727;42.624;23.406;2022-11-23T11:25:51;21.43;;;15.20;;
3427;SDS011;1727;42.624;23.406;2022-11-23T11:28:34;11.03;;;9.47;;
3427;SDS011;1727;42.624;23.406;2022-11-23T11:31:08;5.60;;;4.23;;
3427;SDS011;1727;42.624;23.406;2022-11-23T11:33:47;5.83;;;4.93;;
3427;SDS011;1727;42.624;23.406;2022-11-23T11:36:19;5.77;;;4.93;;
3427;SDS011;1727;42.624;23.406;2022-11-23T11:38:48;6.27;;;4.17;;
3427;SDS011;1727;42.624;23.406;2022-11-23T11:41:21;5.50;;;4.87;;
3427;SDS011;1727;42.624;23.406;2022-11-23T11:43:51;6.03;;;5.40;;
3427;SDS011;1727;42.624;23.406;2022-11-23T11:46:24;6.67;;;5.63;;
3427;SDS011;1727;42.624;23.406;2022-11-23T11:48:56;5.87;;;5.23;;
3427;SDS011;1727;42.624;23.406;2022-11-23T11:51:33;10.10;;;7.33;;
3427;SDS011;1727;42.624;23.406;2022-11-23T11:54:10;12.80;;;8.63;;
3427;SDS011;1727;42.624;23.406;2022-11-23T11:56:46;16.33;;;11.00;;
3427;SDS011;1727;42.624;23.406;2022-11-23T11:59:18;44.70;;;24.63;;
3427;SDS011;1727;42.624;23.406;2022-11-23T12:01:52;26.37;;;16.10;;
3427;SDS011;1727;42.624;23.406;2022-11-23T12:04:25;14.70;;;10.47;;
3427;SDS011;1727;42.624;23.406;2022-11-23T12:07:01;10.37;;;8.17;;
3427;SDS011;1727;42.624;23.406;2022-11-23T12:09:34;12.90;;;9.27;;
3427;SDS011;1727;42.624;23.406;2022-11-23T12:12:11;11.20;;;9.47;;
3427;SDS011;1727;42.624;23.406;2022-11-23T12:14:40;9.97;;;7.77;;
3427;SDS011;1727;42.624;23.406;2022-11-23T12:17:09;8.63;;;6.40;;
3427;SDS011;1727;42.624;23.406;2022-11-23T12:19:54;4.27;;;3.87;;
3427;SDS011;1727;42.624;23.406;2022-11-23T12:22:31;4.80;;;3.63;;
3427;SDS011;1727;42.624;23.406;2022-11-23T12:25:19;5.23;;;3.30;;
3427;SDS011;1727;42.624;23.406;2022-11-23T12:28:00;2.70;;;2.50;;
3427;SDS011;1727;42.624;23.406;2022-11-23T12:30:41;2.30;;;2.10;;
3427;SDS011;1727;42.624;23.406;2022-11-23T12:33:22;3.10;;;2.73;;
3427;SDS011;1727;42.624;23.406;2022-11-23T12:36:22;13.33;;;3.10;;
3427;SDS011;1727;42.624;23.406;2022-11-23T12:39:14;10.18;;;3.25;;
3427;SDS011;1727;42.624;23.406;2022-11-23T12:41:58;4.07;;;2.13;;
3427;SDS011;1727;42.624;23.406;2022-11-23T12:44:38;3.30;;;2.33;;
3427;SDS011;1727;42.624;23.406;2022-11-23T12:47:21;2.50;;;2.30;;
3427;SDS011;1727;42.624;23.406;2022-11-23T12:49:57;3.47;;;2.30;;
3427;SDS011;1727;42.624;23.406;2022-11-23T12:52:34;2.80;;;2.13;;
3427;SDS011;1727;42.624;23.406;2022-11-23T12:55:14;3.10;;;2.10;;
3427;SDS011;1727;42.624;23.406;2022-11-23T12:57:49;2.80;;;2.07;;
3427;SDS011;1727;42.624;23.406;2022-11-23T13:00:25;4.13;;;2.80;;
3427;SDS011;1727;42.624;23.406;2022-11-23T13:03:13;3.40;;;2.13;;
3427;SDS011;1727;42.624;23.406;2022-11-23T13:06:21;2.30;;;1.90;;
3427;SDS011;1727;42.624;23.406;2022-11-23T13:12:18;2.00;;;1.90;;
3427;SDS011;1727;42.624;23.406;2022-11-23T13:15:13;1.60;;;1.50;;
3427;SDS011;1727;42.624;23.406;2022-11-23T13:17:49;3.10;;;1.67;;
3427;SDS011;1727;42.624;23.406;2022-11-23T13:20:29;2.90;;;2.70;;
3427;SDS011;1727;42.624;23.406;2022-11-23T13:23:14;2.10;;;1.40;;
3427;SDS011;1727;42.624;23.406;2022-11-23T13:25:55;3.80;;;1.60;;
3427;SDS011;1727;42.624;23.406;2022-11-23T13:28:38;2.53;;;1.80;;
3427;SDS011;1727;42.624;23.406;2022-11-23T13:31:18;4.50;;;2.60;;
3427;SDS011;1727;42.624;23.406;2022-11-23T13:33:50;2.37;;;2.17;;
3427;SDS011;1727;42.624;23.406;2022-11-23T13:36:35;1.93;;;1.70;;
3427;SDS011;1727;42.624;23.406;2022-11-23T13:42:12;4.97;;;2.80;;
3427;SDS011;1727;42.624;23.406;2022-11-23T13:44:39;15.17;;;6.53;;
3427;SDS011;1727;42.624;23.406;2022-11-23T13:47:17;5.93;;;5.27;;
3427;SDS011;1727;42.624;23.406;2022-11-23T13:49:47;6.90;;;3.40;;
3427;SDS011;1727;42.624;23.406;2022-11-23T13:52:21;3.93;;;3.27;;
3427;SDS011;1727;42.624;23.406;2022-11-23T13:55:02;13.47;;;7.53;;
3427;SDS011;1727;42.624;23.406;2022-11-23T13:57:44;20.00;;;9.73;;
3427;SDS011;1727;42.624;23.406;2022-11-23T14:06:16;8.33;;;4.40;;
3427;SDS011;1727;42.624;23.406;2022-11-23T14:08:47;7.03;;;5.20;;
3427;SDS011;1727;42.624;23.406;2022-11-23T14:11:19;5.53;;;4.83;;
3427;SDS011;1727;42.624;23.406;2022-11-23T14:13:50;2.70;;;2.50;;
3427;SDS011;1727;42.624;23.406;2022-11-23T14:16:23;4.47;;;2.70;;
3427;SDS011;1727;42.624;23.406;2022-11-23T14:19:20;4.50;;;2.63;;
3427;SDS011;1727;42.624;23.406;2022-11-23T14:21:57;2.97;;;2.47;;
3427;SDS011;1727;42.624;23.406;2022-11-23T14:24:44;4.50;;;1.90;;
3427;SDS011;1727;42.624;23.406;2022-11-23T14:27:27;2.93;;;2.60;;
3427;SDS011;1727;42.624;23.406;2022-11-23T14:30:04;7.50;;;2.47;;
3427;SDS011;1727;42.624;23.406;2022-11-23T14:32:46;5.53;;;2.30;;
3427;SDS011;1727;42.624;23.406;2022-11-23T14:35:27;4.57;;;3.57;;
3427;SDS011;1727;42.624;23.406;2022-11-23T14:38:06;8.17;;;3.70;;
3427;SDS011;1727;42.624;23.406;2022-11-23T14:41:00;6.80;;;2.47;;
3427;SDS011;1727;42.624;23.406;2022-11-23T14:43:32;3.60;;;2.30;;
3427;SDS011;1727;42.624;23.406;2022-11-23T14:46:01;29.47;;;15.53;;
3427;SDS011;1727;42.624;23.406;2022-11-23T14:48:31;18.93;;;13.47;;
3427;SDS011;1727;42.624;23.406;2022-11-23T14:51:00;81.57;;;45.00;;
3427;SDS011;1727;42.624;23.406;2022-11-23T14:53:31;16.47;;;13.47;;
3427;SDS011;1727;42.624;23.406;2022-11-23T14:56:00;8.40;;;7.60;;
3427;SDS011;1727;42.624;23.406;2022-11-23T14:58:29;9.07;;;8.20;;
3427;SDS011;1727;42.624;23.406;2022-11-23T15:00:58;8.63;;;5.40;;
3427;SDS011;1727;42.624;23.406;2022-11-23T15:03:27;3.93;;;3.50;;
3427;SDS011;1727;42.624;23.406;2022-11-23T15:05:55;4.67;;;2.90;;
3427;SDS011;1727;42.624;23.406;2022-11-23T15:08:33;4.53;;;2.27;;
3427;SDS011;1727;42.624;23.406;2022-11-23T15:11:07;3.93;;;3.53;;
3427;SDS011;1727;42.624;23.406;2022-11-23T15:13:42;5.80;;;3.30;;
3427;SDS011;1727;42.624;23.406;2022-11-23T15:16:11;3.60;;;3.00;;
3427;SDS011;1727;42.624;23.406;2022-11-23T15:18:39;4.30;;;3.90;;
3427;SDS011;1727;42.624;23.406;2022-11-23T15:21:12;8.03;;;5.33;;
3427;SDS011;1727;42.624;23.406;2022-11-23T15:23:45;7.37;;;3.50;;